createdAt,value
2017-08-08T00:00:47.445Z,0
2017-08-08T00:01:47.498Z,0
2017-08-08T00:02:47.550Z,0
2017-08-08T00:03:47.608Z,0
2017-08-08T00:04:47.667Z,0
2017-08-08T00:05:47.715Z,0
2017-08-08T00:06:47.776Z,0
2017-08-08T00:07:47.528Z,0
2017-08-08T00:08:47.882Z,0
2017-08-08T00:09:47.647Z,0
2017-08-08T00:10:47.686Z,0
2017-08-08T00:11:47.750Z,0
2017-08-08T00:12:48.131Z,0
2017-08-08T00:13:47.865Z,0
2017-08-08T00:14:48.227Z,0
2017-08-08T00:15:47.970Z,0
2017-08-08T00:16:48.339Z,0
2017-08-08T00:17:48.391Z,0
2017-08-08T00:18:48.450Z,0
2017-08-08T00:19:48.212Z,0
2017-08-08T00:20:48.565Z,0
2017-08-08T00:21:48.616Z,0
2017-08-08T00:22:48.675Z,0
2017-08-08T00:23:48.720Z,0
2017-08-08T00:24:48.781Z,0
2017-08-08T00:25:48.851Z,0
2017-08-08T00:26:48.595Z,0
2017-08-08T00:27:48.943Z,0
2017-08-08T00:28:49.008Z,0
2017-08-08T00:29:48.754Z,0
2017-08-08T00:30:49.115Z,0
2017-08-08T00:31:49.171Z,0
2017-08-08T00:32:49.241Z,0
2017-08-08T00:33:49.277Z,0
2017-08-08T00:34:49.347Z,0
2017-08-08T00:35:49.393Z,0
2017-08-08T00:36:49.453Z,0
2017-08-08T00:37:49.196Z,0
2017-08-08T00:38:49.567Z,0
2017-08-08T00:39:49.622Z,0
2017-08-08T00:40:49.668Z,0
2017-08-08T00:41:49.737Z,0
2017-08-08T00:42:49.783Z,0
2017-08-08T00:43:49.535Z,0
2017-08-08T00:44:49.911Z,0
2017-08-08T00:45:49.956Z,0
2017-08-08T00:46:50.015Z,0
2017-08-08T00:47:49.766Z,0
2017-08-08T00:48:50.133Z,0
2017-08-08T00:49:49.879Z,0
2017-08-08T00:50:50.227Z,0
2017-08-08T00:51:50.289Z,0
2017-08-08T00:52:50.349Z,0
2017-08-08T00:53:50.407Z,0
2017-08-08T00:54:50.158Z,0
2017-08-08T00:55:50.519Z,0
2017-08-08T00:56:50.269Z,0
2017-08-08T00:57:50.310Z,0
2017-08-08T00:58:50.373Z,0
2017-08-08T00:59:50.426Z,0
2017-08-08T01:00:50.490Z,0
2017-08-08T01:01:50.548Z,0
2017-08-08T01:02:50.905Z,0
2017-08-08T01:03:50.959Z,0
2017-08-08T01:04:51.017Z,0
2017-08-08T01:05:50.760Z,0
2017-08-08T01:06:51.134Z,0
2017-08-08T01:07:51.190Z,0
2017-08-08T01:08:51.226Z,0
2017-08-08T01:09:51.291Z,0
2017-08-08T01:10:51.351Z,0
2017-08-08T01:11:51.400Z,0
2017-08-08T01:12:51.470Z,0
2017-08-08T01:13:51.505Z,0
2017-08-08T01:14:51.266Z,0
2017-08-08T01:15:51.324Z,0
2017-08-08T01:16:51.678Z,0
2017-08-08T01:17:51.748Z,0
2017-08-08T01:18:51.787Z,0
2017-08-08T01:19:51.858Z,0
2017-08-08T01:20:51.907Z,0
2017-08-08T01:21:51.657Z,0
2017-08-08T01:22:52.017Z,0
2017-08-08T01:23:52.067Z,0
2017-08-08T01:24:52.128Z,0
2017-08-08T01:25:52.183Z,0
2017-08-08T01:26:52.241Z,0
2017-08-08T01:27:52.293Z,0
2017-08-08T01:28:52.361Z,0
2017-08-08T01:29:52.404Z,0
2017-08-08T01:30:52.461Z,0
2017-08-08T01:31:52.514Z,0
2017-08-08T01:32:52.568Z,0
2017-08-08T01:33:52.630Z,0
2017-08-08T01:34:52.686Z,0
2017-08-08T01:35:52.759Z,0
2017-08-08T01:36:52.793Z,0
2017-08-08T01:37:52.853Z,0
2017-08-08T01:38:52.912Z,0
2017-08-08T01:39:52.969Z,0
2017-08-08T01:40:53.010Z,0
2017-08-08T01:41:53.080Z,0
2017-08-08T01:42:53.129Z,0
2017-08-08T01:43:53.182Z,0
2017-08-08T01:44:52.942Z,0
2017-08-08T01:45:53.308Z,0
2017-08-08T01:46:53.344Z,0
2017-08-08T01:47:53.405Z,0
2017-08-08T01:48:52.855Z,0
2017-08-08T01:49:53.512Z,0
2017-08-08T01:50:53.578Z,0
2017-08-08T01:51:53.629Z,0
2017-08-08T01:52:53.700Z,0
2017-08-08T01:53:53.746Z,0
2017-08-08T01:54:53.799Z,0
2017-08-08T01:55:53.866Z,0
2017-08-08T01:56:53.915Z,0
2017-08-08T01:57:53.986Z,0
2017-08-08T01:58:54.023Z,0
2017-08-08T01:59:53.472Z,0
2017-08-08T02:00:54.135Z,0
2017-08-08T02:01:53.892Z,0
2017-08-08T02:02:53.932Z,0
2017-08-08T02:03:54.298Z,0
2017-08-08T02:04:54.356Z,0
2017-08-08T02:05:54.410Z,0
2017-08-08T02:06:54.462Z,0
2017-08-08T02:07:54.225Z,0
2017-08-08T02:08:54.567Z,0
2017-08-08T02:09:54.644Z,0
2017-08-08T02:10:54.382Z,0
2017-08-08T02:11:54.743Z,0
2017-08-08T02:12:54.797Z,0
2017-08-08T02:13:54.862Z,0
2017-08-08T02:14:54.909Z,0
2017-08-08T02:15:54.968Z,0
2017-08-08T02:16:55.035Z,0
2017-08-08T02:17:55.076Z,0
2017-08-08T02:18:54.822Z,0
2017-08-08T02:19:55.184Z,0
2017-08-08T02:20:55.243Z,0
2017-08-08T02:21:55.308Z,0
2017-08-08T02:22:55.354Z,0
2017-08-08T02:23:55.411Z,0
2017-08-08T02:24:55.474Z,0
2017-08-08T02:25:55.537Z,0
2017-08-08T02:26:55.571Z,0
2017-08-08T02:27:55.636Z,0
2017-08-08T02:28:55.689Z,0
2017-08-08T02:29:55.748Z,0
2017-08-08T02:30:55.825Z,0
2017-08-08T02:31:55.857Z,0
2017-08-08T02:32:55.906Z,0
2017-08-08T02:33:55.965Z,0
2017-08-08T02:34:56.027Z,0
2017-08-08T02:35:55.774Z,0
2017-08-08T02:36:55.822Z,0
2017-08-08T02:37:55.889Z,0
2017-08-08T02:38:56.242Z,0
2017-08-08T02:39:56.307Z,0
2017-08-08T02:40:56.349Z,0
2017-08-08T02:41:56.404Z,0
2017-08-08T02:42:56.177Z,0
2017-08-08T02:43:56.230Z,0
2017-08-08T02:44:56.280Z,0
2017-08-08T02:45:56.329Z,0
2017-08-08T02:46:56.396Z,0
2017-08-08T02:47:56.445Z,0
2017-08-08T02:48:56.813Z,0
2017-08-08T02:49:56.854Z,0
2017-08-08T02:50:56.924Z,0
2017-08-08T02:51:56.980Z,0
2017-08-08T02:52:57.032Z,0
2017-08-08T02:53:57.077Z,0
2017-08-08T02:54:57.138Z,0
2017-08-08T02:55:57.192Z,0
2017-08-08T02:56:57.261Z,0
2017-08-08T02:57:57.312Z,0
2017-08-08T02:58:57.366Z,0
2017-08-08T02:59:57.416Z,0
2017-08-08T03:00:57.469Z,0
2017-08-08T03:01:57.522Z,0
2017-08-08T03:02:57.583Z,0
2017-08-08T03:03:57.640Z,0
2017-08-08T03:04:57.397Z,0
2017-08-08T03:05:57.745Z,0
2017-08-08T03:06:57.498Z,0
2017-08-08T03:07:57.551Z,0
2017-08-08T03:08:57.614Z,0
2017-08-08T03:09:57.661Z,0
2017-08-08T03:10:58.024Z,0
2017-08-08T03:11:58.085Z,0
2017-08-08T03:12:58.137Z,0
2017-08-08T03:13:58.193Z,0
2017-08-08T03:14:58.256Z,0
2017-08-08T03:15:58.307Z,0
2017-08-08T03:16:58.365Z,0
2017-08-08T03:17:58.425Z,0
2017-08-08T03:18:58.480Z,0
2017-08-08T03:19:58.521Z,0
2017-08-08T03:20:58.584Z,0
2017-08-08T03:21:58.634Z,0
2017-08-08T03:22:58.693Z,0
2017-08-08T03:23:58.752Z,0
2017-08-08T03:24:58.816Z,0
2017-08-08T03:25:58.860Z,0
2017-08-08T03:26:58.916Z,0
2017-08-08T03:27:58.976Z,0
2017-08-08T03:28:59.042Z,0
2017-08-08T03:29:59.092Z,0
2017-08-08T03:30:59.154Z,0
2017-08-08T03:31:59.208Z,0
2017-08-08T03:32:59.263Z,0
2017-08-08T03:33:59.317Z,0
2017-08-08T03:34:59.372Z,0
2017-08-08T03:35:59.421Z,0
2017-08-08T03:36:59.470Z,0
2017-08-08T03:37:59.530Z,0
2017-08-08T03:38:59.586Z,0
2017-08-08T03:39:59.341Z,0
2017-08-08T03:40:59.400Z,0
2017-08-08T03:41:59.764Z,0
2017-08-08T03:42:59.816Z,0
2017-08-08T03:43:59.869Z,0
2017-08-08T03:44:59.652Z,0
2017-08-08T03:45:59.979Z,0
2017-08-08T03:47:00.030Z,0
2017-08-08T03:48:00.085Z,0
2017-08-08T03:49:00.143Z,4
2017-08-08T03:50:00.204Z,4
2017-08-08T03:51:00.248Z,4
2017-08-08T03:52:00.302Z,0
2017-08-08T03:53:00.360Z,4
2017-08-08T03:54:00.440Z,4
2017-08-08T03:55:00.172Z,4
2017-08-08T03:56:00.533Z,4
2017-08-08T03:57:00.295Z,4
2017-08-08T03:58:00.644Z,4
2017-08-08T03:59:00.709Z,8
2017-08-08T04:00:00.752Z,8
2017-08-08T04:01:00.846Z,8
2017-08-08T04:02:00.866Z,8
2017-08-08T04:03:00.923Z,12
2017-08-08T04:04:00.990Z,12
2017-08-08T04:05:01.029Z,12
2017-08-08T04:06:01.094Z,12
2017-08-08T04:07:01.144Z,16
2017-08-08T04:08:00.894Z,16
2017-08-08T04:09:01.260Z,16
2017-08-08T04:10:01.004Z,16
2017-08-08T04:11:01.362Z,20
2017-08-08T04:12:01.421Z,20
2017-08-08T04:13:01.478Z,24
2017-08-08T04:14:01.534Z,28
2017-08-08T04:15:01.287Z,28
2017-08-08T04:16:01.650Z,28
2017-08-08T04:17:01.396Z,32
2017-08-08T04:18:01.767Z,32
2017-08-08T04:19:01.807Z,32
2017-08-08T04:20:01.880Z,40
2017-08-08T04:21:01.924Z,40
2017-08-08T04:22:01.987Z,40
2017-08-08T04:23:02.033Z,40
2017-08-08T04:24:02.094Z,44
2017-08-08T04:25:02.139Z,44
2017-08-08T04:26:01.905Z,48
2017-08-08T04:27:01.958Z,48
2017-08-08T04:28:02.007Z,52
2017-08-08T04:29:02.063Z,56
2017-08-08T04:30:02.435Z,56
2017-08-08T04:31:02.475Z,56
2017-08-08T04:32:02.533Z,60
2017-08-08T04:33:02.603Z,64
2017-08-08T04:34:02.652Z,68
2017-08-08T04:35:02.399Z,68
2017-08-08T04:36:02.757Z,68
2017-08-08T04:37:02.506Z,68
2017-08-08T04:38:02.878Z,72
2017-08-08T04:39:02.924Z,72
2017-08-08T04:40:02.983Z,76
2017-08-08T04:41:03.048Z,76
2017-08-08T04:42:02.787Z,80
2017-08-08T04:43:02.850Z,80
2017-08-08T04:44:02.897Z,84
2017-08-08T04:45:03.256Z,84
2017-08-08T04:46:03.006Z,88
2017-08-08T04:47:03.059Z,84
2017-08-08T04:48:03.119Z,88
2017-08-08T04:49:03.471Z,92
2017-08-08T04:50:02.929Z,96
2017-08-08T04:51:03.599Z,112
2017-08-08T04:52:03.652Z,124
2017-08-08T04:53:03.718Z,128
2017-08-08T04:54:03.755Z,128
2017-08-08T04:55:03.512Z,128
2017-08-08T04:56:03.874Z,132
2017-08-08T04:57:03.626Z,128
2017-08-08T04:58:03.684Z,132
2017-08-08T04:59:04.038Z,132
2017-08-08T05:00:04.108Z,136
2017-08-08T05:01:04.144Z,136
2017-08-08T05:02:03.596Z,140
2017-08-08T05:03:04.259Z,140
2017-08-08T05:04:04.314Z,144
2017-08-08T05:05:04.375Z,144
2017-08-08T05:06:04.427Z,148
2017-08-08T05:07:04.474Z,152
2017-08-08T05:08:04.549Z,152
2017-08-08T05:09:04.591Z,156
2017-08-08T05:10:04.344Z,156
2017-08-08T05:11:04.395Z,160
2017-08-08T05:12:04.453Z,160
2017-08-08T05:13:04.509Z,164
2017-08-08T05:14:04.573Z,164
2017-08-08T05:15:04.937Z,172
2017-08-08T05:16:04.991Z,164
2017-08-08T05:17:05.043Z,164
2017-08-08T05:18:05.103Z,160
2017-08-08T05:19:05.143Z,168
2017-08-08T05:20:05.218Z,184
2017-08-08T05:21:05.258Z,188
2017-08-08T05:22:05.307Z,192
2017-08-08T05:23:05.078Z,200
2017-08-08T05:24:05.433Z,204
2017-08-08T05:25:05.478Z,212
2017-08-08T05:26:05.552Z,216
2017-08-08T05:27:05.601Z,216
2017-08-08T05:28:05.352Z,224
2017-08-08T05:29:05.716Z,228
2017-08-08T05:30:05.464Z,236
2017-08-08T05:31:05.821Z,236
2017-08-08T05:32:05.867Z,240
2017-08-08T05:33:05.934Z,248
2017-08-08T05:34:05.995Z,252
2017-08-08T05:35:06.042Z,256
2017-08-08T05:36:06.097Z,256
2017-08-08T05:37:05.841Z,260
2017-08-08T05:38:06.210Z,256
2017-08-08T05:39:06.259Z,264
2017-08-08T05:40:06.329Z,260
2017-08-08T05:41:06.372Z,264
2017-08-08T05:42:06.431Z,268
2017-08-08T05:43:06.184Z,260
2017-08-08T05:44:06.545Z,256
2017-08-08T05:45:06.599Z,248
2017-08-08T05:46:06.650Z,264
2017-08-08T05:47:06.414Z,280
2017-08-08T05:48:06.457Z,280
2017-08-08T05:49:06.823Z,284
2017-08-08T05:50:06.569Z,284
2017-08-08T05:51:06.940Z,280
2017-08-08T05:52:06.694Z,276
2017-08-08T05:53:07.044Z,252
2017-08-08T05:54:07.101Z,256
2017-08-08T05:55:07.154Z,248
2017-08-08T05:56:07.214Z,256
2017-08-08T05:57:06.991Z,252
2017-08-08T05:58:07.324Z,256
2017-08-08T05:59:07.377Z,248
2017-08-08T06:00:07.135Z,232
2017-08-08T06:01:07.485Z,208
2017-08-08T06:02:07.558Z,228
2017-08-08T06:03:07.603Z,256
2017-08-08T06:04:07.660Z,228
2017-08-08T06:05:07.712Z,224
2017-08-08T06:06:07.771Z,236
2017-08-08T06:07:07.520Z,244
2017-08-08T06:08:07.277Z,256
2017-08-08T06:09:07.630Z,268
2017-08-08T06:10:07.696Z,296
2017-08-08T06:11:07.740Z,308
2017-08-08T06:12:08.100Z,300
2017-08-08T06:13:07.869Z,320
2017-08-08T06:14:07.915Z,312
2017-08-08T06:15:08.274Z,320
2017-08-08T06:16:08.019Z,312
2017-08-08T06:17:08.072Z,320
2017-08-08T06:18:08.136Z,328
2017-08-08T06:19:08.191Z,304
2017-08-08T06:20:08.246Z,336
2017-08-08T06:21:08.306Z,340
2017-08-08T06:22:08.659Z,348
2017-08-08T06:23:08.406Z,328
2017-08-08T06:24:08.468Z,332
2017-08-08T06:25:08.528Z,328
2017-08-08T06:26:08.579Z,304
2017-08-08T06:27:08.938Z,332
2017-08-08T06:28:08.996Z,324
2017-08-08T06:29:08.750Z,360
2017-08-08T06:30:09.119Z,356
2017-08-08T06:31:09.176Z,340
2017-08-08T06:32:09.224Z,340
2017-08-08T06:33:09.295Z,312
2017-08-08T06:34:09.343Z,348
2017-08-08T06:35:09.397Z,360
2017-08-08T06:36:09.448Z,368
2017-08-08T06:37:09.493Z,364
2017-08-08T06:38:09.555Z,368
2017-08-08T06:39:09.618Z,368
2017-08-08T06:40:09.368Z,368
2017-08-08T06:41:09.421Z,372
2017-08-08T06:42:09.477Z,372
2017-08-08T06:43:09.834Z,372
2017-08-08T06:44:09.890Z,364
2017-08-08T06:45:09.947Z,360
2017-08-08T06:46:10.004Z,344
2017-08-08T06:52:41.187Z,364
2017-08-08T06:53:26.626Z,360
2017-08-08T06:54:26.686Z,368
2017-08-08T06:55:26.724Z,368
2017-08-08T06:56:26.779Z,372
2017-08-08T06:57:26.847Z,376
2017-08-08T06:58:26.591Z,384
2017-08-08T06:59:26.976Z,392
2017-08-08T07:00:27.010Z,396
2017-08-08T07:01:27.077Z,400
2017-08-08T07:02:27.127Z,392
2017-08-08T07:03:27.188Z,412
2017-08-08T07:04:27.227Z,412
2017-08-08T07:05:27.286Z,400
2017-08-08T07:06:27.349Z,412
2017-08-08T07:07:27.406Z,416
2017-08-08T07:08:27.454Z,420
2017-08-08T07:09:27.516Z,424
2017-08-08T07:10:27.562Z,428
2017-08-08T07:11:27.638Z,436
2017-08-08T07:12:27.683Z,440
2017-08-08T07:13:27.735Z,444
2017-08-08T07:14:27.799Z,452
2017-08-08T07:15:27.861Z,460
2017-08-08T07:16:27.907Z,440
2017-08-08T07:17:27.962Z,356
2017-08-08T07:18:28.023Z,408
2017-08-08T07:19:28.064Z,432
2017-08-08T07:20:28.122Z,444
2017-08-08T07:21:28.174Z,444
2017-08-08T07:22:27.931Z,448
2017-08-08T07:23:27.991Z,448
2017-08-08T07:24:27.747Z,428
2017-08-08T07:25:28.097Z,428
2017-08-08T07:26:28.153Z,428
2017-08-08T07:27:28.522Z,420
2017-08-08T07:28:28.576Z,416
2017-08-08T07:29:28.634Z,416
2017-08-08T07:30:28.684Z,428
2017-08-08T07:31:28.734Z,428
2017-08-08T07:32:28.794Z,424
2017-08-08T07:33:28.844Z,416
2017-08-08T07:34:28.904Z,380
2017-08-08T07:35:28.960Z,436
2017-08-08T07:36:28.715Z,440
2017-08-08T07:37:28.767Z,444
2017-08-08T07:38:29.125Z,444
2017-08-08T07:39:29.186Z,452
2017-08-08T07:40:29.243Z,452
2017-08-08T07:41:29.295Z,452
2017-08-08T07:42:29.346Z,436
2017-08-08T07:43:29.101Z,460
2017-08-08T07:44:29.465Z,472
2017-08-08T07:45:29.519Z,476
2017-08-08T07:46:28.966Z,484
2017-08-08T07:47:29.332Z,496
2017-08-08T07:48:29.388Z,508
2017-08-08T07:49:29.463Z,508
2017-08-08T07:50:29.802Z,504
2017-08-08T07:51:29.852Z,504
2017-08-08T07:52:29.609Z,508
2017-08-08T07:53:29.958Z,520
2017-08-08T07:54:29.720Z,524
2017-08-08T07:55:30.081Z,476
2017-08-08T07:56:30.127Z,508
2017-08-08T07:57:30.185Z,540
2017-08-08T07:58:30.267Z,456
2017-08-08T07:59:30.305Z,328
2017-08-08T08:00:30.355Z,476
2017-08-08T08:01:30.412Z,628
2017-08-08T08:02:30.467Z,652
2017-08-08T08:03:30.526Z,648
2017-08-08T08:04:30.582Z,592
2017-08-08T08:05:30.640Z,572
2017-08-08T08:06:30.688Z,584
2017-08-08T08:07:30.452Z,608
2017-08-08T08:08:30.807Z,640
2017-08-08T08:09:30.872Z,580
2017-08-08T08:10:30.924Z,380
2017-08-08T08:11:30.974Z,388
2017-08-08T08:12:30.717Z,324
2017-08-08T08:13:31.093Z,404
2017-08-08T08:14:31.137Z,380
2017-08-08T08:15:31.183Z,536
2017-08-08T08:16:31.243Z,544
2017-08-08T08:17:31.301Z,572
2017-08-08T08:18:31.349Z,564
2017-08-08T08:19:31.410Z,496
2017-08-08T08:20:31.466Z,536
2017-08-08T08:21:31.530Z,384
2017-08-08T08:22:31.584Z,404
2017-08-08T08:23:31.638Z,692
2017-08-08T08:24:31.698Z,580
2017-08-08T08:25:31.741Z,624
2017-08-08T08:26:31.802Z,548
2017-08-08T08:27:31.861Z,628
2017-08-08T08:28:31.915Z,628
2017-08-08T08:29:31.671Z,588
2017-08-08T08:30:31.723Z,624
2017-08-08T08:31:31.781Z,652
2017-08-08T08:32:32.146Z,596
2017-08-08T08:33:32.187Z,624
2017-08-08T08:34:32.255Z,672
2017-08-08T08:35:32.315Z,684
2017-08-08T08:36:32.357Z,704
2017-08-08T08:37:32.416Z,712
2017-08-08T08:38:32.168Z,728
2017-08-08T08:39:32.531Z,732
2017-08-08T08:40:32.287Z,748
2017-08-08T08:41:32.655Z,732
2017-08-08T08:42:32.398Z,764
2017-08-08T08:43:32.450Z,792
2017-08-08T08:44:32.820Z,728
2017-08-08T08:45:32.862Z,784
2017-08-08T08:46:32.923Z,780
2017-08-08T08:47:32.986Z,496
2017-08-08T08:48:33.037Z,428
2017-08-08T08:49:32.779Z,640
2017-08-08T08:50:32.847Z,764
2017-08-08T08:51:32.896Z,752
2017-08-08T08:52:33.264Z,748
2017-08-08T08:53:33.321Z,808
2017-08-08T08:54:33.368Z,824
2017-08-08T08:55:33.424Z,832
2017-08-08T08:56:33.487Z,812
2017-08-08T08:57:33.544Z,620
2017-08-08T08:58:33.293Z,456
2017-08-08T08:59:33.352Z,652
2017-08-08T09:00:33.415Z,624
2017-08-08T09:01:33.766Z,612
2017-08-08T09:02:33.831Z,872
2017-08-08T09:03:33.567Z,872
2017-08-08T09:04:33.945Z,836
2017-08-08T09:05:33.986Z,340
2017-08-08T09:06:34.060Z,368
2017-08-08T09:07:34.109Z,464
2017-08-08T09:08:34.166Z,560
2017-08-08T09:09:34.223Z,548
2017-08-08T09:10:34.269Z,728
2017-08-08T09:11:34.328Z,852
2017-08-08T09:12:34.391Z,844
2017-08-08T09:13:34.446Z,488
2017-08-08T09:14:34.501Z,476
2017-08-08T09:15:34.556Z,600
2017-08-08T09:16:34.607Z,780
2017-08-08T09:17:34.359Z,868
2017-08-08T09:18:34.717Z,904
2017-08-08T09:19:34.475Z,500
2017-08-08T09:20:34.888Z,592
2017-08-08T09:21:34.574Z,784
2017-08-08T09:22:34.944Z,692
2017-08-08T09:23:34.993Z,940
2017-08-08T09:24:35.064Z,804
2017-08-08T09:25:35.104Z,832
2017-08-08T09:26:34.863Z,664
2017-08-08T09:27:35.224Z,960
2017-08-08T09:28:34.975Z,1076
2017-08-08T09:29:35.033Z,1120
2017-08-08T09:30:35.091Z,1092
2017-08-08T09:31:35.454Z,728
2017-08-08T09:32:35.508Z,668
2017-08-08T09:33:35.556Z,596
2017-08-08T09:34:35.623Z,564
2017-08-08T09:35:35.682Z,536
2017-08-08T09:36:35.731Z,500
2017-08-08T09:37:35.779Z,488
2017-08-08T09:38:35.849Z,492
2017-08-08T09:39:35.909Z,476
2017-08-08T09:40:35.952Z,432
2017-08-08T09:41:36.013Z,408
2017-08-08T09:42:36.068Z,396
2017-08-08T09:43:35.821Z,388
2017-08-08T09:44:36.184Z,376
2017-08-08T09:45:36.233Z,376
2017-08-08T09:46:36.304Z,368
2017-08-08T09:47:36.343Z,356
2017-08-08T09:48:36.107Z,364
2017-08-08T09:49:36.470Z,388
2017-08-08T09:50:36.524Z,404
2017-08-08T09:51:36.572Z,416
2017-08-08T09:52:36.644Z,448
2017-08-08T09:53:36.685Z,480
2017-08-08T09:54:36.739Z,500
2017-08-08T09:55:36.797Z,560
2017-08-08T09:56:36.849Z,608
2017-08-08T09:57:36.912Z,636
2017-08-08T09:58:36.660Z,616
2017-08-08T09:59:37.019Z,584
2017-08-08T10:00:37.080Z,696
2017-08-08T10:01:37.136Z,684
2017-08-08T10:02:37.193Z,648
2017-08-08T10:03:37.247Z,804
2017-08-08T10:04:37.299Z,836
2017-08-08T10:05:37.351Z,1020
2017-08-08T10:06:37.420Z,1100
2017-08-08T10:07:37.477Z,1096
2017-08-08T10:08:37.526Z,1000
2017-08-08T10:09:37.586Z,976
2017-08-08T10:10:37.633Z,960
2017-08-08T10:11:37.694Z,844
2017-08-08T10:12:37.768Z,944
2017-08-08T10:13:37.491Z,1024
2017-08-08T10:14:37.856Z,1076
2017-08-08T10:15:37.919Z,1116
2017-08-08T10:16:37.981Z,1200
2017-08-08T10:17:38.030Z,1016
2017-08-08T10:18:38.079Z,908
2017-08-08T10:19:38.140Z,868
2017-08-08T10:20:38.201Z,932
2017-08-08T10:21:38.256Z,888
2017-08-08T10:22:38.315Z,808
2017-08-08T10:23:38.360Z,828
2017-08-08T10:24:38.419Z,820
2017-08-08T10:25:38.181Z,904
2017-08-08T10:26:38.549Z,964
2017-08-08T10:27:38.277Z,908
2017-08-08T10:28:38.640Z,896
2017-08-08T10:29:38.706Z,884
2017-08-08T10:30:38.755Z,912
2017-08-08T10:31:38.807Z,756
2017-08-08T10:32:38.877Z,680
2017-08-08T10:33:38.924Z,776
2017-08-08T10:34:38.672Z,1128
2017-08-08T10:35:38.724Z,1048
2017-08-08T10:36:38.783Z,964
2017-08-08T10:37:38.842Z,1048
2017-08-08T10:38:39.203Z,1176
2017-08-08T10:39:38.954Z,928
2017-08-08T10:40:39.313Z,1144
2017-08-08T10:41:39.374Z,1148
2017-08-08T10:42:39.430Z,1136
2017-08-08T10:43:39.487Z,1112
2017-08-08T10:44:38.935Z,1116
2017-08-08T10:45:39.591Z,1052
2017-08-08T10:46:39.654Z,1176
2017-08-08T10:47:39.715Z,1108
2017-08-08T10:48:39.765Z,1024
2017-08-08T10:49:39.816Z,1032
2017-08-08T10:50:39.868Z,1116
2017-08-08T10:51:39.931Z,1152
2017-08-08T10:52:39.685Z,1208
2017-08-08T10:53:39.745Z,1092
2017-08-08T10:54:39.792Z,1084
2017-08-08T10:55:40.162Z,1148
2017-08-08T10:56:39.906Z,1044
2017-08-08T10:57:40.265Z,1104
2017-08-08T10:58:40.018Z,924
2017-08-08T10:59:40.074Z,1184
2017-08-08T11:00:40.128Z,1204
2017-08-08T11:01:40.186Z,1132
2017-08-08T11:02:39.941Z,1108
2017-08-08T11:03:40.612Z,1088
2017-08-08T11:04:40.361Z,1152
2017-08-08T11:05:40.712Z,1228
2017-08-08T11:06:40.778Z,1292
2017-08-08T11:07:40.838Z,1264
2017-08-08T11:08:40.889Z,1256
2017-08-08T11:09:40.955Z,1144
2017-08-08T11:10:41.010Z,788
2017-08-08T11:11:41.067Z,1080
2017-08-08T11:12:41.105Z,1188
2017-08-08T11:13:41.162Z,1256
2017-08-08T11:14:41.230Z,1268
2017-08-08T11:15:40.979Z,1216
2017-08-08T11:16:41.335Z,1240
2017-08-08T11:17:41.401Z,1212
2017-08-08T11:18:41.446Z,1180
2017-08-08T11:19:41.494Z,1204
2017-08-08T11:20:41.560Z,1184
2017-08-08T11:21:41.322Z,1208
2017-08-08T11:22:41.360Z,1248
2017-08-08T11:23:41.726Z,868
2017-08-08T11:24:41.782Z,868
2017-08-08T11:25:41.843Z,1324
2017-08-08T11:26:41.899Z,1320
2017-08-08T11:27:41.956Z,1376
2017-08-08T11:28:41.703Z,1344
2017-08-08T11:29:41.769Z,840
2017-08-08T11:30:42.120Z,1232
2017-08-08T11:31:41.877Z,1372
2017-08-08T11:32:41.929Z,1300
2017-08-08T11:33:41.997Z,1256
2017-08-08T11:34:42.344Z,1256
2017-08-08T11:35:42.403Z,1376
2017-08-08T11:36:42.472Z,1272
2017-08-08T11:37:41.905Z,556
2017-08-08T11:38:42.574Z,772
2017-08-08T11:39:42.332Z,708
2017-08-08T11:40:42.696Z,864
2017-08-08T11:41:42.745Z,984
2017-08-08T11:42:42.505Z,1148
2017-08-08T11:43:42.861Z,964
2017-08-08T11:44:42.907Z,796
2017-08-08T11:45:42.672Z,900
2017-08-08T11:46:43.020Z,1396
2017-08-08T11:47:43.084Z,1404
2017-08-08T11:48:42.826Z,1604
2017-08-08T11:49:42.899Z,940
2017-08-08T11:50:43.256Z,920
2017-08-08T11:51:43.005Z,780
2017-08-08T11:52:43.370Z,788
2017-08-08T11:53:43.422Z,832
2017-08-08T11:54:43.481Z,1496
2017-08-08T11:55:43.534Z,1496
2017-08-08T11:56:43.587Z,928
2017-08-08T11:57:43.643Z,1532
2017-08-08T11:58:43.717Z,1188
2017-08-08T11:59:43.758Z,1532
2017-08-08T12:00:43.817Z,972
2017-08-08T12:01:43.885Z,1632
2017-08-08T12:02:43.927Z,1692
2017-08-08T12:03:43.992Z,1096
2017-08-08T12:04:44.047Z,1344
2017-08-08T12:05:44.093Z,756
2017-08-08T12:06:44.156Z,816
2017-08-08T12:07:44.210Z,1112
2017-08-08T12:08:44.260Z,1048
2017-08-08T12:09:44.328Z,916
2017-08-08T12:10:44.082Z,1116
2017-08-08T12:11:44.435Z,984
2017-08-08T12:12:44.489Z,892
2017-08-08T12:13:44.556Z,1260
2017-08-08T12:14:44.304Z,668
2017-08-08T12:15:44.350Z,920
2017-08-08T12:16:44.719Z,960
2017-08-08T12:17:44.473Z,928
2017-08-08T12:18:44.532Z,1060
2017-08-08T12:19:44.882Z,988
2017-08-08T12:20:45.146Z,1000
2017-08-08T12:21:45.004Z,1256
2017-08-08T12:22:44.761Z,1164
2017-08-08T12:23:44.814Z,1208
2017-08-08T12:24:45.166Z,1016
2017-08-08T12:25:45.218Z,672
2017-08-08T12:26:45.285Z,536
2017-08-08T12:27:45.337Z,620
2017-08-08T12:28:45.402Z,604
2017-08-08T12:29:44.843Z,508
2017-08-08T12:30:45.207Z,344
2017-08-08T12:31:44.954Z,256
2017-08-08T12:32:45.321Z,224
2017-08-08T12:33:45.674Z,208
2017-08-08T12:34:45.725Z,204
2017-08-08T12:35:45.788Z,196
2017-08-08T12:36:45.539Z,192
2017-08-08T12:37:45.610Z,204
2017-08-08T12:38:45.656Z,220
2017-08-08T12:39:45.724Z,232
2017-08-08T12:40:46.070Z,228
2017-08-08T12:41:46.127Z,220
2017-08-08T12:42:46.176Z,220
2017-08-08T12:43:46.234Z,236
2017-08-08T12:44:46.309Z,252
2017-08-08T12:45:46.057Z,284
2017-08-08T12:46:46.407Z,284
2017-08-08T12:47:46.460Z,296
2017-08-08T12:48:46.524Z,304
2017-08-08T12:49:46.578Z,300
2017-08-08T12:50:46.633Z,304
2017-08-08T12:51:46.688Z,272
2017-08-08T12:52:46.758Z,224
2017-08-08T12:53:46.996Z,180
2017-08-08T12:54:47.063Z,220
2017-08-08T12:55:46.916Z,312
2017-08-08T12:56:46.974Z,308
2017-08-08T12:57:46.739Z,368
2017-08-08T12:58:46.789Z,432
2017-08-08T12:59:47.351Z,500
2017-08-08T13:00:46.893Z,436
2017-08-08T13:01:47.259Z,472
2017-08-08T13:02:47.311Z,520
2017-08-08T13:03:47.052Z,636
2017-08-08T13:04:47.414Z,940
2017-08-08T13:05:47.171Z,636
2017-08-08T13:06:47.228Z,660
2017-08-08T13:07:47.597Z,464
2017-08-08T13:08:47.642Z,680
2017-08-08T13:09:47.756Z,572
2017-08-08T13:10:47.447Z,396
2017-08-08T13:11:47.515Z,272
2017-08-08T13:12:47.872Z,300
2017-08-08T13:13:47.932Z,344
2017-08-08T13:14:47.683Z,380
2017-08-08T13:15:48.040Z,284
2017-08-08T13:16:48.095Z,260
2017-08-08T13:17:47.858Z,244
2017-08-08T13:18:47.907Z,228
2017-08-08T13:19:48.265Z,204
2017-08-08T13:20:48.327Z,144
2017-08-08T13:21:48.069Z,128
2017-08-08T13:22:47.821Z,212
2017-08-08T13:23:48.193Z,152
2017-08-08T13:24:48.556Z,112
2017-08-08T13:25:48.597Z,124
2017-08-08T13:26:48.656Z,156
2017-08-08T13:27:48.716Z,176
2017-08-08T13:28:48.780Z,160
2017-08-08T13:29:48.825Z,104
2017-08-08T13:30:48.894Z,76
2017-08-08T13:31:48.944Z,80
2017-08-08T13:32:49.196Z,88
2017-08-08T13:33:49.045Z,128
2017-08-08T13:34:48.804Z,160
2017-08-08T13:35:49.166Z,204
2017-08-08T13:36:48.921Z,324
2017-08-08T13:37:49.178Z,268
2017-08-08T13:38:49.543Z,356
2017-08-08T13:39:49.390Z,264
2017-08-08T13:40:49.134Z,252
2017-08-08T13:41:49.530Z,376
2017-08-08T13:42:49.562Z,424
2017-08-08T13:43:49.808Z,480
2017-08-08T13:44:49.365Z,600
2017-08-08T13:45:49.426Z,528
2017-08-08T13:46:49.790Z,328
2017-08-08T13:47:49.839Z,232
2017-08-08T13:48:49.896Z,264
2017-08-08T13:49:49.952Z,336
2017-08-08T13:50:50.010Z,292
2017-08-08T13:51:50.062Z,292
2017-08-08T13:52:50.132Z,396
2017-08-08T13:53:50.185Z,680
2017-08-08T13:54:50.242Z,484
2017-08-08T13:55:50.284Z,472
2017-08-08T13:56:50.355Z,196
2017-08-08T13:57:50.412Z,92
2017-08-08T13:58:50.449Z,180
2017-08-08T13:59:50.513Z,256
2017-08-08T14:00:50.577Z,468
2017-08-08T14:01:50.625Z,232
2017-08-08T14:02:50.680Z,244
2017-08-08T14:03:50.749Z,228
2017-08-08T14:04:50.487Z,196
2017-08-08T14:05:50.857Z,232
2017-08-08T14:06:50.925Z,212
2017-08-08T14:07:50.956Z,152